sensor_id;sensor_type;location;lat;lon;timestamp;temperature;humidity
40085;DHT22;25786;51.504;7.344;2022-12-07T00:00:42;5.90;89.50
40085;DHT22;25786;51.504;7.344;2022-12-07T00:03:09;5.80;89.50
40085;DHT22;25786;51.504;7.344;2022-12-07T00:05:34;6.00;89.30
40085;DHT22;25786;51.504;7.344;2022-12-07T00:08:00;5.90;89.20
40085;DHT22;25786;51.504;7.344;2022-12-07T00:10:25;5.90;89.40
40085;DHT22;25786;51.504;7.344;2022-12-07T00:12:51;5.90;89.20
40085;DHT22;25786;51.504;7.344;2022-12-07T00:15:16;5.90;89.10
40085;DHT22;25786;51.504;7.344;2022-12-07T00:17:42;5.90;89.40
40085;DHT22;25786;51.504;7.344;2022-12-07T00:20:07;5.80;89.60
40085;DHT22;25786;51.504;7.344;2022-12-07T00:22:33;5.90;89.30
40085;DHT22;25786;51.504;7.344;2022-12-07T00:24:58;5.90;89.30
40085;DHT22;25786;51.504;7.344;2022-12-07T00:27:24;5.90;89.20
40085;DHT22;25786;51.504;7.344;2022-12-07T00:29:49;5.90;89.40
40085;DHT22;25786;51.504;7.344;2022-12-07T00:32:14;5.90;89.40
40085;DHT22;25786;51.504;7.344;2022-12-07T00:34:40;5.90;89.50
40085;DHT22;25786;51.504;7.344;2022-12-07T00:37:05;6.00;89.10
40085;DHT22;25786;51.504;7.344;2022-12-07T00:39:31;6.00;89.10
40085;DHT22;25786;51.504;7.344;2022-12-07T00:41:56;6.00;89.20
40085;DHT22;25786;51.504;7.344;2022-12-07T00:44:22;6.00;89.00
40085;DHT22;25786;51.504;7.344;2022-12-07T00:46:47;6.00;89.20
40085;DHT22;25786;51.504;7.344;2022-12-07T00:49:13;6.00;89.00
40085;DHT22;25786;51.504;7.344;2022-12-07T00:51:38;6.10;88.80
40085;DHT22;25786;51.504;7.344;2022-12-07T00:54:03;6.10;88.90
40085;DHT22;25786;51.504;7.344;2022-12-07T00:56:29;6.00;89.00
40085;DHT22;25786;51.504;7.344;2022-12-07T00:58:59;6.00;89.20
40085;DHT22;25786;51.504;7.344;2022-12-07T01:01:25;6.00;89.20
40085;DHT22;25786;51.504;7.344;2022-12-07T01:03:50;6.00;88.80
40085;DHT22;25786;51.504;7.344;2022-12-07T01:06:17;6.00;88.60
40085;DHT22;25786;51.504;7.344;2022-12-07T01:08:42;6.00;88.70
40085;DHT22;25786;51.504;7.344;2022-12-07T01:11:09;6.00;88.90
40085;DHT22;25786;51.504;7.344;2022-12-07T01:13:35;6.10;88.70
40085;DHT22;25786;51.504;7.344;2022-12-07T01:16:01;6.10;88.40
40085;DHT22;25786;51.504;7.344;2022-12-07T01:18:27;6.10;88.70
40085;DHT22;25786;51.504;7.344;2022-12-07T01:23:27;6.00;88.40
40085;DHT22;25786;51.504;7.344;2022-12-07T01:25:56;6.00;88.80
40085;DHT22;25786;51.504;7.344;2022-12-07T01:28:22;6.00;88.70
40085;DHT22;25786;51.504;7.344;2022-12-07T01:33:22;6.00;88.60
40085;DHT22;25786;51.504;7.344;2022-12-07T01:35:47;6.00;88.80
40085;DHT22;25786;51.504;7.344;2022-12-07T01:38:12;6.00;89.20
40085;DHT22;25786;51.504;7.344;2022-12-07T01:40:38;6.00;89.00
40085;DHT22;25786;51.504;7.344;2022-12-07T01:43:07;5.90;88.90
40085;DHT22;25786;51.504;7.344;2022-12-07T01:45:36;5.90;89.10
40085;DHT22;25786;51.504;7.344;2022-12-07T01:48:02;6.00;89.00
40085;DHT22;25786;51.504;7.344;2022-12-07T01:50:29;5.90;89.00
40085;DHT22;25786;51.504;7.344;2022-12-07T01:52:57;5.90;89.00
40085;DHT22;25786;51.504;7.344;2022-12-07T01:55:24;6.00;88.80
40085;DHT22;25786;51.504;7.344;2022-12-07T01:57:50;5.90;88.90
40085;DHT22;25786;51.504;7.344;2022-12-07T02:00:17;6.00;89.20
40085;DHT22;25786;51.504;7.344;2022-12-07T02:02:44;6.00;89.30
40085;DHT22;25786;51.504;7.344;2022-12-07T02:05:11;5.90;89.40
40085;DHT22;25786;51.504;7.344;2022-12-07T02:07:37;5.80;89.30
40085;DHT22;25786;51.504;7.344;2022-12-07T02:13:23;6.00;89.20
40085;DHT22;25786;51.504;7.344;2022-12-07T02:18:40;6.00;88.70
40085;DHT22;25786;51.504;7.344;2022-12-07T02:31:36;6.00;88.60
40085;DHT22;25786;51.504;7.344;2022-12-07T02:34:07;6.00;88.50
40085;DHT22;25786;51.504;7.344;2022-12-07T02:36:36;5.90;88.50
40085;DHT22;25786;51.504;7.344;2022-12-07T02:39:10;5.90;88.50
40085;DHT22;25786;51.504;7.344;2022-12-07T02:41:38;5.80;88.60
40085;DHT22;25786;51.504;7.344;2022-12-07T02:44:07;5.90;88.20
40085;DHT22;25786;51.504;7.344;2022-12-07T02:46:36;5.90;88.40
40085;DHT22;25786;51.504;7.344;2022-12-07T02:49:02;5.80;88.10
40085;DHT22;25786;51.504;7.344;2022-12-07T02:51:31;5.80;88.30
40085;DHT22;25786;51.504;7.344;2022-12-07T02:53:57;5.70;88.80
40085;DHT22;25786;51.504;7.344;2022-12-07T02:59:13;5.80;88.70
40085;DHT22;25786;51.504;7.344;2022-12-07T03:01:51;5.70;88.90
40085;DHT22;25786;51.504;7.344;2022-12-07T03:07:03;5.70;89.00
40085;DHT22;25786;51.504;7.344;2022-12-07T03:12:24;5.70;88.90
40085;DHT22;25786;51.504;7.344;2022-12-07T03:14:53;5.60;88.80
40085;DHT22;25786;51.504;7.344;2022-12-07T03:17:24;5.60;88.80
40085;DHT22;25786;51.504;7.344;2022-12-07T03:19:50;5.60;89.30
40085;DHT22;25786;51.504;7.344;2022-12-07T03:22:18;5.60;88.90
40085;DHT22;25786;51.504;7.344;2022-12-07T03:24:54;5.60;88.90
40085;DHT22;25786;51.504;7.344;2022-12-07T03:27:32;5.60;88.90
40085;DHT22;25786;51.504;7.344;2022-12-07T03:30:00;5.50;88.80
40085;DHT22;25786;51.504;7.344;2022-12-07T03:32:29;5.50;88.90
40085;DHT22;25786;51.504;7.344;2022-12-07T03:37:23;5.50;88.80
40085;DHT22;25786;51.504;7.344;2022-12-07T03:42:17;5.40;88.60
40085;DHT22;25786;51.504;7.344;2022-12-07T03:44:42;5.50;88.20
40085;DHT22;25786;51.504;7.344;2022-12-07T03:47:29;5.40;88.40
40085;DHT22;25786;51.504;7.344;2022-12-07T03:52:58;5.10;88.90
40085;DHT22;25786;51.504;7.344;2022-12-07T03:55:29;5.10;88.90
40085;DHT22;25786;51.504;7.344;2022-12-07T03:57:57;5.10;88.90
40085;DHT22;25786;51.504;7.344;2022-12-07T04:00:24;5.10;89.00
40085;DHT22;25786;51.504;7.344;2022-12-07T04:02:53;5.10;89.10
40085;DHT22;25786;51.504;7.344;2022-12-07T04:05:18;5.10;88.80
40085;DHT22;25786;51.504;7.344;2022-12-07T04:07:44;5.00;89.00
40085;DHT22;25786;51.504;7.344;2022-12-07T04:10:10;5.00;89.30
40085;DHT22;25786;51.504;7.344;2022-12-07T04:12:35;5.00;89.20
40085;DHT22;25786;51.504;7.344;2022-12-07T04:15:01;5.10;89.30
40085;DHT22;25786;51.504;7.344;2022-12-07T04:17:26;5.10;89.10
40085;DHT22;25786;51.504;7.344;2022-12-07T04:19:51;5.00;89.10
40085;DHT22;25786;51.504;7.344;2022-12-07T04:22:17;5.00;89.50
40085;DHT22;25786;51.504;7.344;2022-12-07T04:24:42;5.00;89.60
40085;DHT22;25786;51.504;7.344;2022-12-07T04:27:08;5.00;89.50
40085;DHT22;25786;51.504;7.344;2022-12-07T04:29:33;5.10;89.40
40085;DHT22;25786;51.504;7.344;2022-12-07T04:31:59;5.10;89.40
40085;DHT22;25786;51.504;7.344;2022-12-07T04:34:24;5.10;89.30
40085;DHT22;25786;51.504;7.344;2022-12-07T04:36:50;5.10;89.10
40085;DHT22;25786;51.504;7.344;2022-12-07T04:39:19;5.20;89.20
40085;DHT22;25786;51.504;7.344;2022-12-07T04:41:45;5.20;89.00
40085;DHT22;25786;51.504;7.344;2022-12-07T04:44:11;5.10;89.10
40085;DHT22;25786;51.504;7.344;2022-12-07T04:46:39;5.10;89.20
40085;DHT22;25786;51.504;7.344;2022-12-07T04:49:04;5.10;88.80
40085;DHT22;25786;51.504;7.344;2022-12-07T04:51:30;5.10;88.90
40085;DHT22;25786;51.504;7.344;2022-12-07T04:53:55;5.10;88.90
40085;DHT22;25786;51.504;7.344;2022-12-07T04:56:21;5.10;89.10
40085;DHT22;25786;51.504;7.344;2022-12-07T04:58:48;5.10;89.30
40085;DHT22;25786;51.504;7.344;2022-12-07T05:01:14;5.10;89.30
40085;DHT22;25786;51.504;7.344;2022-12-07T05:03:40;5.20;89.10
40085;DHT22;25786;51.504;7.344;2022-12-07T05:06:06;5.10;88.80
40085;DHT22;25786;51.504;7.344;2022-12-07T05:08:32;5.10;89.00
40085;DHT22;25786;51.504;7.344;2022-12-07T05:10:58;5.10;89.00
40085;DHT22;25786;51.504;7.344;2022-12-07T05:13:23;5.10;88.70
40085;DHT22;25786;51.504;7.344;2022-12-07T05:15:49;5.10;88.80
40085;DHT22;25786;51.504;7.344;2022-12-07T05:18:14;5.10;89.00
40085;DHT22;25786;51.504;7.344;2022-12-07T05:20:40;5.00;89.10
40085;DHT22;25786;51.504;7.344;2022-12-07T05:23:06;5.00;89.00
40085;DHT22;25786;51.504;7.344;2022-12-07T05:25:31;5.00;89.10
40085;DHT22;25786;51.504;7.344;2022-12-07T05:27:57;5.00;88.90
40085;DHT22;25786;51.504;7.344;2022-12-07T05:30:23;5.00;88.90
40085;DHT22;25786;51.504;7.344;2022-12-07T05:32:48;4.90;89.20
40085;DHT22;25786;51.504;7.344;2022-12-07T05:35:14;4.90;89.40
40085;DHT22;25786;51.504;7.344;2022-12-07T05:37:39;4.90;89.50
40085;DHT22;25786;51.504;7.344;2022-12-07T05:40:05;4.90;89.40
40085;DHT22;25786;51.504;7.344;2022-12-07T05:42:30;5.00;89.30
40085;DHT22;25786;51.504;7.344;2022-12-07T05:44:56;5.00;89.20
40085;DHT22;25786;51.504;7.344;2022-12-07T05:47:21;4.90;89.20
40085;DHT22;25786;51.504;7.344;2022-12-07T05:49:47;4.80;89.20
40085;DHT22;25786;51.504;7.344;2022-12-07T05:52:12;4.80;89.40
40085;DHT22;25786;51.504;7.344;2022-12-07T05:54:38;4.80;89.60
40085;DHT22;25786;51.504;7.344;2022-12-07T05:57:03;4.80;89.50
40085;DHT22;25786;51.504;7.344;2022-12-07T05:59:29;4.70;89.40
40085;DHT22;25786;51.504;7.344;2022-12-07T06:01:55;4.70;89.70
40085;DHT22;25786;51.504;7.344;2022-12-07T06:04:21;4.70;89.70
40085;DHT22;25786;51.504;7.344;2022-12-07T06:06:47;4.80;89.80
40085;DHT22;25786;51.504;7.344;2022-12-07T06:09:12;4.80;89.60
40085;DHT22;25786;51.504;7.344;2022-12-07T06:11:38;4.90;89.60
40085;DHT22;25786;51.504;7.344;2022-12-07T06:14:23;4.90;89.20
40085;DHT22;25786;51.504;7.344;2022-12-07T06:16:48;5.00;88.90
40085;DHT22;25786;51.504;7.344;2022-12-07T06:19:14;5.00;88.90
40085;DHT22;25786;51.504;7.344;2022-12-07T06:21:39;4.80;88.90
40085;DHT22;25786;51.504;7.344;2022-12-07T06:24:05;4.80;89.00
40085;DHT22;25786;51.504;7.344;2022-12-07T06:26:30;4.80;89.20
40085;DHT22;25786;51.504;7.344;2022-12-07T06:28:56;4.90;88.80
40085;DHT22;25786;51.504;7.344;2022-12-07T06:31:21;4.80;89.20
40085;DHT22;25786;51.504;7.344;2022-12-07T06:33:47;4.80;89.10
40085;DHT22;25786;51.504;7.344;2022-12-07T06:36:13;4.80;88.90
40085;DHT22;25786;51.504;7.344;2022-12-07T06:38:38;4.80;89.10
40085;DHT22;25786;51.504;7.344;2022-12-07T06:41:04;4.80;88.80
40085;DHT22;25786;51.504;7.344;2022-12-07T06:43:29;4.70;89.20
40085;DHT22;25786;51.504;7.344;2022-12-07T06:45:55;4.60;89.40
40085;DHT22;25786;51.504;7.344;2022-12-07T06:48:20;4.70;89.30
40085;DHT22;25786;51.504;7.344;2022-12-07T06:50:46;4.80;89.20
40085;DHT22;25786;51.504;7.344;2022-12-07T06:53:15;4.80;89.30
40085;DHT22;25786;51.504;7.344;2022-12-07T06:55:41;4.80;89.20
40085;DHT22;25786;51.504;7.344;2022-12-07T06:58:06;4.90;88.80
40085;DHT22;25786;51.504;7.344;2022-12-07T07:00:32;4.90;88.80
40085;DHT22;25786;51.504;7.344;2022-12-07T07:02:57;4.80;88.60
40085;DHT22;25786;51.504;7.344;2022-12-07T07:05:22;4.80;88.40
40085;DHT22;25786;51.504;7.344;2022-12-07T07:07:48;4.70;88.40
40085;DHT22;25786;51.504;7.344;2022-12-07T07:10:14;4.70;88.40
40085;DHT22;25786;51.504;7.344;2022-12-07T07:12:39;4.60;88.60
40085;DHT22;25786;51.504;7.344;2022-12-07T07:15:05;4.60;88.70
40085;DHT22;25786;51.504;7.344;2022-12-07T07:17:30;4.70;88.80
40085;DHT22;25786;51.504;7.344;2022-12-07T07:19:56;4.60;88.50
40085;DHT22;25786;51.504;7.344;2022-12-07T07:22:21;4.60;88.80
40085;DHT22;25786;51.504;7.344;2022-12-07T07:24:47;4.60;88.80
40085;DHT22;25786;51.504;7.344;2022-12-07T07:27:12;4.60;88.30
40085;DHT22;25786;51.504;7.344;2022-12-07T07:29:38;4.60;88.40
40085;DHT22;25786;51.504;7.344;2022-12-07T07:32:03;4.50;88.50
40085;DHT22;25786;51.504;7.344;2022-12-07T07:34:29;4.50;88.80
40085;DHT22;25786;51.504;7.344;2022-12-07T07:36:54;4.50;88.60
40085;DHT22;25786;51.504;7.344;2022-12-07T07:39:19;4.60;88.50
40085;DHT22;25786;51.504;7.344;2022-12-07T07:41:45;4.60;88.40
40085;DHT22;25786;51.504;7.344;2022-12-07T07:44:11;4.50;88.50
40085;DHT22;25786;51.504;7.344;2022-12-07T07:46:36;4.50;88.40
40085;DHT22;25786;51.504;7.344;2022-12-07T07:49:02;4.50;88.70
40085;DHT22;25786;51.504;7.344;2022-12-07T07:51:27;4.40;88.80
40085;DHT22;25786;51.504;7.344;2022-12-07T07:53:53;4.40;88.90
40085;DHT22;25786;51.504;7.344;2022-12-07T07:56:18;4.50;88.90
40085;DHT22;25786;51.504;7.344;2022-12-07T07:58:44;4.40;88.90
40085;DHT22;25786;51.504;7.344;2022-12-07T08:01:09;4.40;88.70
40085;DHT22;25786;51.504;7.344;2022-12-07T08:03:35;4.40;88.80
40085;DHT22;25786;51.504;7.344;2022-12-07T08:06:03;4.30;88.60
40085;DHT22;25786;51.504;7.344;2022-12-07T08:08:29;4.40;88.40
40085;DHT22;25786;51.504;7.344;2022-12-07T08:10:54;4.50;88.40
40085;DHT22;25786;51.504;7.344;2022-12-07T08:13:20;4.50;88.20
40085;DHT22;25786;51.504;7.344;2022-12-07T08:15:46;4.50;88.20
40085;DHT22;25786;51.504;7.344;2022-12-07T08:18:12;4.50;88.20
40085;DHT22;25786;51.504;7.344;2022-12-07T08:20:39;4.50;88.40
40085;DHT22;25786;51.504;7.344;2022-12-07T08:23:05;4.50;88.30
40085;DHT22;25786;51.504;7.344;2022-12-07T08:25:31;4.50;88.40
40085;DHT22;25786;51.504;7.344;2022-12-07T08:27:56;4.60;88.40
40085;DHT22;25786;51.504;7.344;2022-12-07T08:30:22;4.60;88.20
40085;DHT22;25786;51.504;7.344;2022-12-07T08:32:48;4.60;88.20
40085;DHT22;25786;51.504;7.344;2022-12-07T08:35:14;4.70;88.10
40085;DHT22;25786;51.504;7.344;2022-12-07T08:37:40;4.80;88.10
40085;DHT22;25786;51.504;7.344;2022-12-07T08:40:06;4.90;88.10
40085;DHT22;25786;51.504;7.344;2022-12-07T08:42:32;5.00;87.70
40085;DHT22;25786;51.504;7.344;2022-12-07T08:45:06;5.10;87.40
40085;DHT22;25786;51.504;7.344;2022-12-07T08:47:31;5.10;87.30
40085;DHT22;25786;51.504;7.344;2022-12-07T08:49:57;5.10;87.30
40085;DHT22;25786;51.504;7.344;2022-12-07T08:52:29;5.20;87.30
40085;DHT22;25786;51.504;7.344;2022-12-07T08:54:55;5.20;87.20
40085;DHT22;25786;51.504;7.344;2022-12-07T08:57:20;5.30;87.00
40085;DHT22;25786;51.504;7.344;2022-12-07T08:59:46;5.30;86.80
40085;DHT22;25786;51.504;7.344;2022-12-07T09:02:11;5.30;87.00
40085;DHT22;25786;51.504;7.344;2022-12-07T09:04:37;5.30;87.00
40085;DHT22;25786;51.504;7.344;2022-12-07T09:07:02;5.30;87.20
40085;DHT22;25786;51.504;7.344;2022-12-07T09:09:29;5.30;87.00
40085;DHT22;25786;51.504;7.344;2022-12-07T09:11:54;5.30;86.80
40085;DHT22;25786;51.504;7.344;2022-12-07T09:14:20;5.30;87.10
40085;DHT22;25786;51.504;7.344;2022-12-07T09:16:45;5.40;86.90
40085;DHT22;25786;51.504;7.344;2022-12-07T09:19:11;5.40;86.80
40085;DHT22;25786;51.504;7.344;2022-12-07T09:21:36;5.40;86.90
40085;DHT22;25786;51.504;7.344;2022-12-07T09:24:02;5.50;86.60
40085;DHT22;25786;51.504;7.344;2022-12-07T09:26:27;5.50;86.70
40085;DHT22;25786;51.504;7.344;2022-12-07T09:28:53;5.60;86.30
40085;DHT22;25786;51.504;7.344;2022-12-07T09:31:18;5.60;86.30
40085;DHT22;25786;51.504;7.344;2022-12-07T09:33:44;5.60;86.30
40085;DHT22;25786;51.504;7.344;2022-12-07T09:36:09;5.60;86.40
40085;DHT22;25786;51.504;7.344;2022-12-07T09:38:35;5.60;86.10
40085;DHT22;25786;51.504;7.344;2022-12-07T09:41:05;5.60;86.10
40085;DHT22;25786;51.504;7.344;2022-12-07T09:43:30;5.70;86.30
40085;DHT22;25786;51.504;7.344;2022-12-07T09:45:56;5.70;86.10
40085;DHT22;25786;51.504;7.344;2022-12-07T09:48:27;5.60;85.80
40085;DHT22;25786;51.504;7.344;2022-12-07T09:50:54;5.70;85.80
40085;DHT22;25786;51.504;7.344;2022-12-07T09:53:25;5.60;86.20
40085;DHT22;25786;51.504;7.344;2022-12-07T09:55:52;5.60;86.00
40085;DHT22;25786;51.504;7.344;2022-12-07T09:58:24;5.60;86.10
40085;DHT22;25786;51.504;7.344;2022-12-07T10:00:55;5.60;85.60
40085;DHT22;25786;51.504;7.344;2022-12-07T10:03:22;5.60;85.80
40085;DHT22;25786;51.504;7.344;2022-12-07T10:05:48;5.50;86.10
40085;DHT22;25786;51.504;7.344;2022-12-07T10:08:14;5.50;86.20
40085;DHT22;25786;51.504;7.344;2022-12-07T10:10:42;5.30;86.20
40085;DHT22;25786;51.504;7.344;2022-12-07T10:15:44;5.30;86.90
40085;DHT22;25786;51.504;7.344;2022-12-07T10:23:40;5.30;87.00
40085;DHT22;25786;51.504;7.344;2022-12-07T10:28:50;5.40;86.60
40085;DHT22;25786;51.504;7.344;2022-12-07T10:31:17;5.50;86.40
40085;DHT22;25786;51.504;7.344;2022-12-07T10:33:57;5.60;86.70
40085;DHT22;25786;51.504;7.344;2022-12-07T10:36:24;5.60;86.40
40085;DHT22;25786;51.504;7.344;2022-12-07T10:38:58;5.80;85.40
40085;DHT22;25786;51.504;7.344;2022-12-07T10:41:25;5.80;85.40
40085;DHT22;25786;51.504;7.344;2022-12-07T10:43:55;5.90;85.10
40085;DHT22;25786;51.504;7.344;2022-12-07T10:51:33;6.00;84.00
40085;DHT22;25786;51.504;7.344;2022-12-07T10:59:36;6.10;83.50
40085;DHT22;25786;51.504;7.344;2022-12-07T11:04:55;6.10;83.20
40085;DHT22;25786;51.504;7.344;2022-12-07T11:09:57;6.30;83.40
40085;DHT22;25786;51.504;7.344;2022-12-07T11:17:32;6.40;82.80
40085;DHT22;25786;51.504;7.344;2022-12-07T11:20:15;6.30;83.00
40085;DHT22;25786;51.504;7.344;2022-12-07T11:22:51;6.30;83.10
40085;DHT22;25786;51.504;7.344;2022-12-07T11:25:27;6.30;83.00
40085;DHT22;25786;51.504;7.344;2022-12-07T11:30:59;6.20;82.80
40085;DHT22;25786;51.504;7.344;2022-12-07T11:35:45;6.30;83.30
40085;DHT22;25786;51.504;7.344;2022-12-07T11:38:14;6.30;82.80
40085;DHT22;25786;51.504;7.344;2022-12-07T11:40:40;6.30;82.80
40085;DHT22;25786;51.504;7.344;2022-12-07T11:45:42;6.50;82.90
40085;DHT22;25786;51.504;7.344;2022-12-07T11:50:42;6.50;82.40
40085;DHT22;25786;51.504;7.344;2022-12-07T11:58:35;6.70;81.20
40085;DHT22;25786;51.504;7.344;2022-12-07T12:00:55;6.60;81.50
40085;DHT22;25786;51.504;7.344;2022-12-07T12:03:30;6.70;81.00
40085;DHT22;25786;51.504;7.344;2022-12-07T12:05:57;6.70;81.00
40085;DHT22;25786;51.504;7.344;2022-12-07T12:10:55;6.60;81.60
40085;DHT22;25786;51.504;7.344;2022-12-07T12:16:18;6.70;80.60
40085;DHT22;25786;51.504;7.344;2022-12-07T12:21:15;6.50;80.50
40085;DHT22;25786;51.504;7.344;2022-12-07T12:23:43;6.50;80.70
40085;DHT22;25786;51.504;7.344;2022-12-07T12:26:20;6.50;80.90
40085;DHT22;25786;51.504;7.344;2022-12-07T12:31:12;6.50;80.90
40085;DHT22;25786;51.504;7.344;2022-12-07T12:33:38;6.60;80.70
40085;DHT22;25786;51.504;7.344;2022-12-07T12:36:17;6.60;80.60
40085;DHT22;25786;51.504;7.344;2022-12-07T12:46:45;6.60;79.40
40085;DHT22;25786;51.504;7.344;2022-12-07T12:51:52;6.60;79.40
40085;DHT22;25786;51.504;7.344;2022-12-07T12:54:22;6.70;79.80
40085;DHT22;25786;51.504;7.344;2022-12-07T12:56:53;6.80;80.00
40085;DHT22;25786;51.504;7.344;2022-12-07T13:01:49;6.80;79.60
40085;DHT22;25786;51.504;7.344;2022-12-07T13:04:21;6.80;79.60
40085;DHT22;25786;51.504;7.344;2022-12-07T13:06:48;6.80;79.90
40085;DHT22;25786;51.504;7.344;2022-12-07T13:09:22;6.80;79.70
40085;DHT22;25786;51.504;7.344;2022-12-07T13:11:49;6.80;80.20
40085;DHT22;25786;51.504;7.344;2022-12-07T13:14:38;6.80;79.50
40085;DHT22;25786;51.504;7.344;2022-12-07T13:17:12;6.80;79.90
40085;DHT22;25786;51.504;7.344;2022-12-07T13:19:58;6.70;80.20
40085;DHT22;25786;51.504;7.344;2022-12-07T13:24:56;6.70;79.50
40085;DHT22;25786;51.504;7.344;2022-12-07T13:27:22;6.80;79.00
40085;DHT22;25786;51.504;7.344;2022-12-07T13:29:48;6.80;79.60
40085;DHT22;25786;51.504;7.344;2022-12-07T13:32:23;6.80;79.70
40085;DHT22;25786;51.504;7.344;2022-12-07T13:34:54;6.80;79.50
40085;DHT22;25786;51.504;7.344;2022-12-07T13:37:24;6.70;79.40
40085;DHT22;25786;51.504;7.344;2022-12-07T13:39:52;6.70;80.00
40085;DHT22;25786;51.504;7.344;2022-12-07T13:42:31;6.70;80.50
40085;DHT22;25786;51.504;7.344;2022-12-07T13:44:58;6.70;80.10
40085;DHT22;25786;51.504;7.344;2022-12-07T13:49:56;6.80;80.30
40085;DHT22;25786;51.504;7.344;2022-12-07T13:52:25;6.80;80.40
40085;DHT22;25786;51.504;7.344;2022-12-07T13:55:05;6.90;79.30
40085;DHT22;25786;51.504;7.344;2022-12-07T13:57:32;6.70;80.30
40085;DHT22;25786;51.504;7.344;2022-12-07T14:00:06;6.80;79.80
40085;DHT22;25786;51.504;7.344;2022-12-07T14:02:58;6.80;79.60
40085;DHT22;25786;51.504;7.344;2022-12-07T14:05:27;6.70;80.50
40085;DHT22;25786;51.504;7.344;2022-12-07T14:08:00;6.80;80.00
40085;DHT22;25786;51.504;7.344;2022-12-07T14:12:51;6.70;80.50
40085;DHT22;25786;51.504;7.344;2022-12-07T14:15:31;6.60;81.10
40085;DHT22;25786;51.504;7.344;2022-12-07T14:17:57;6.60;80.90
40085;DHT22;25786;51.504;7.344;2022-12-07T14:23:02;6.20;79.50
40085;DHT22;25786;51.504;7.344;2022-12-07T14:25:50;6.00;80.20
40085;DHT22;25786;51.504;7.344;2022-12-07T14:28:26;5.80;81.00
40085;DHT22;25786;51.504;7.344;2022-12-07T14:30:52;5.60;81.40
40085;DHT22;25786;51.504;7.344;2022-12-07T14:33:17;5.60;82.20
40085;DHT22;25786;51.504;7.344;2022-12-07T14:35:43;5.50;82.00
40085;DHT22;25786;51.504;7.344;2022-12-07T14:38:08;5.40;82.50
40085;DHT22;25786;51.504;7.344;2022-12-07T14:40:34;5.50;82.40
40085;DHT22;25786;51.504;7.344;2022-12-07T14:43:00;5.40;82.40
40085;DHT22;25786;51.504;7.344;2022-12-07T14:45:27;5.40;82.50
40085;DHT22;25786;51.504;7.344;2022-12-07T14:47:52;5.40;82.90
40085;DHT22;25786;51.504;7.344;2022-12-07T14:50:19;5.40;83.20
40085;DHT22;25786;51.504;7.344;2022-12-07T14:52:52;5.30;83.50
40085;DHT22;25786;51.504;7.344;2022-12-07T14:57:44;5.30;83.70
40085;DHT22;25786;51.504;7.344;2022-12-07T15:00:12;5.20;83.90
40085;DHT22;25786;51.504;7.344;2022-12-07T15:02:38;5.20;84.10
40085;DHT22;25786;51.504;7.344;2022-12-07T15:05:04;5.20;84.20
40085;DHT22;25786;51.504;7.344;2022-12-07T15:07:29;5.20;84.30
40085;DHT22;25786;51.504;7.344;2022-12-07T15:09:55;5.20;84.30
40085;DHT22;25786;51.504;7.344;2022-12-07T15:12:20;5.10;84.40
40085;DHT22;25786;51.504;7.344;2022-12-07T15:14:46;5.10;84.70
40085;DHT22;25786;51.504;7.344;2022-12-07T15:17:11;5.10;84.90
40085;DHT22;25786;51.504;7.344;2022-12-07T15:19:40;5.10;85.00
40085;DHT22;25786;51.504;7.344;2022-12-07T15:22:05;5.10;85.10
40085;DHT22;25786;51.504;7.344;2022-12-07T15:24:31;5.10;85.30
40085;DHT22;25786;51.504;7.344;2022-12-07T15:26:56;5.10;85.40
40085;DHT22;25786;51.504;7.344;2022-12-07T15:29:22;5.10;85.50
40085;DHT22;25786;51.504;7.344;2022-12-07T15:31:48;5.10;85.20
40085;DHT22;25786;51.504;7.344;2022-12-07T15:34:14;5.10;85.40
40085;DHT22;25786;51.504;7.344;2022-12-07T15:36:39;5.00;85.70
40085;DHT22;25786;51.504;7.344;2022-12-07T15:39:05;5.00;85.60
40085;DHT22;25786;51.504;7.344;2022-12-07T15:41:30;5.00;85.70
40085;DHT22;25786;51.504;7.344;2022-12-07T15:43:56;5.00;85.90
40085;DHT22;25786;51.504;7.344;2022-12-07T15:46:40;5.00;85.80
40085;DHT22;25786;51.504;7.344;2022-12-07T15:49:11;5.10;85.80
40085;DHT22;25786;51.504;7.344;2022-12-07T15:51:37;5.10;85.80
40085;DHT22;25786;51.504;7.344;2022-12-07T15:54:02;5.10;85.80
40085;DHT22;25786;51.504;7.344;2022-12-07T15:56:27;5.20;85.80
40085;DHT22;25786;51.504;7.344;2022-12-07T15:58:53;5.20;85.80
40085;DHT22;25786;51.504;7.344;2022-12-07T16:01:19;5.10;85.80
40085;DHT22;25786;51.504;7.344;2022-12-07T16:03:45;5.20;86.00
40085;DHT22;25786;51.504;7.344;2022-12-07T16:06:10;5.30;85.80
40085;DHT22;25786;51.504;7.344;2022-12-07T16:08:36;5.30;86.00
40085;DHT22;25786;51.504;7.344;2022-12-07T16:11:08;5.30;85.90
40085;DHT22;25786;51.504;7.344;2022-12-07T16:13:33;5.20;86.20
40085;DHT22;25786;51.504;7.344;2022-12-07T16:16:02;5.10;86.30
40085;DHT22;25786;51.504;7.344;2022-12-07T16:18:27;5.10;86.60
40085;DHT22;25786;51.504;7.344;2022-12-07T16:20:53;5.10;86.70
40085;DHT22;25786;51.504;7.344;2022-12-07T16:23:18;5.10;86.60
40085;DHT22;25786;51.504;7.344;2022-12-07T16:25:44;5.10;86.70
40085;DHT22;25786;51.504;7.344;2022-12-07T16:28:09;5.20;86.50
40085;DHT22;25786;51.504;7.344;2022-12-07T16:30:35;5.30;86.20
40085;DHT22;25786;51.504;7.344;2022-12-07T16:33:00;5.20;86.50
40085;DHT22;25786;51.504;7.344;2022-12-07T16:35:26;5.20;86.60
40085;DHT22;25786;51.504;7.344;2022-12-07T16:37:52;5.30;86.70
40085;DHT22;25786;51.504;7.344;2022-12-07T16:40:17;5.30;86.60
40085;DHT22;25786;51.504;7.344;2022-12-07T16:42:43;5.30;86.60
40085;DHT22;25786;51.504;7.344;2022-12-07T16:45:09;5.30;86.80
40085;DHT22;25786;51.504;7.344;2022-12-07T16:47:36;5.30;86.80
40085;DHT22;25786;51.504;7.344;2022-12-07T16:50:02;5.30;86.80
40085;DHT22;25786;51.504;7.344;2022-12-07T16:52:27;5.30;86.80
40085;DHT22;25786;51.504;7.344;2022-12-07T16:54:53;5.40;86.80
40085;DHT22;25786;51.504;7.344;2022-12-07T16:57:18;5.30;86.80
40085;DHT22;25786;51.504;7.344;2022-12-07T16:59:44;5.30;86.70
40085;DHT22;25786;51.504;7.344;2022-12-07T17:02:10;5.30;86.50
40085;DHT22;25786;51.504;7.344;2022-12-07T17:04:36;5.20;86.70
40085;DHT22;25786;51.504;7.344;2022-12-07T17:07:05;5.40;86.60
40085;DHT22;25786;51.504;7.344;2022-12-07T17:09:30;5.30;86.40
40085;DHT22;25786;51.504;7.344;2022-12-07T17:11:56;5.30;86.60
40085;DHT22;25786;51.504;7.344;2022-12-07T17:14:21;5.30;86.60
40085;DHT22;25786;51.504;7.344;2022-12-07T17:17:06;5.40;86.40
40085;DHT22;25786;51.504;7.344;2022-12-07T17:19:31;5.30;86.60
40085;DHT22;25786;51.504;7.344;2022-12-07T17:21:57;5.30;86.80
40085;DHT22;25786;51.504;7.344;2022-12-07T17:24:22;5.30;87.00
40085;DHT22;25786;51.504;7.344;2022-12-07T17:26:48;5.30;87.00
40085;DHT22;25786;51.504;7.344;2022-12-07T17:29:14;5.40;86.90
40085;DHT22;25786;51.504;7.344;2022-12-07T17:31:41;5.40;87.00
40085;DHT22;25786;51.504;7.344;2022-12-07T17:34:12;5.50;86.60
40085;DHT22;25786;51.504;7.344;2022-12-07T17:36:38;5.50;86.60
40085;DHT22;25786;51.504;7.344;2022-12-07T17:39:08;5.60;86.20
40085;DHT22;25786;51.504;7.344;2022-12-07T17:41:34;5.60;86.30
40085;DHT22;25786;51.504;7.344;2022-12-07T17:44:19;5.60;85.90
40085;DHT22;25786;51.504;7.344;2022-12-07T17:46:47;5.60;86.10